Time;durP1;ratioP1;P1;durP2;ratioP2;P2;SDS_P1;SDS_P2;PMS_P1;PMS_P2;Temp;Humidity;BMP_temperature;BMP_pressure;BME280_temperature;BME280_humidity;BME280_pressure;Samples;Min_cycle;Max_cycle;Signal;HPM_P1;HPM_P2
2023/11/16 01:01:07;;;;;;;0.65;0.50;;;;;;;;;;4972803;28;20113;-87
2023/11/16 02:10:59;;;;;;;0.40;0.20;;;;;;;;;;5012879;28;20045;-89
2023/11/16 02:13:44;;;;;;;2.90;0.35;;;;;;;;;;5001932;28;20404;-88
2023/11/16 02:16:26;;;;;;;0.80;0.55;;;;;;;;;;4989461;28;20401;-89
2023/11/16 02:19:05;;;;;;;;;;;;;;;;;;;;;
2023/11/16 02:21:58;;;;;;;3.88;0.88;;;;;;;;;;5000746;28;20428;-88
2023/11/16 02:24:32;;;;;;;0.90;0.52;;;;;;;;;;4974884;28;20030;-88
2023/11/16 02:27:23;;;;;;;0.80;0.40;;;;;;;;;;4986060;28;20137;-88
2023/11/16 02:29:50;;;;;;;1.90;0.57;;;;;;;;;;4991500;28;20049;-88
2023/11/16 02:32:33;;;;;;;0.50;0.30;;;;;;;;;;5016148;28;20499;-89
2023/11/16 02:37:44;;;;;;;5.38;0.73;;;;;;;;;;5111735;22;20073;-89
2023/11/16 02:40:24;;;;;;;;;;;;;;;;;;;;;
2023/11/16 02:43:11;;;;;;;0.77;0.50;;;;;;;;;;5007418;28;20040;-89
2023/11/16 02:46:08;;;;;;;0.65;0.20;;;;;;;;;;4992653;28;20485;-88
2023/11/16 02:48:53;;;;;;;0.80;0.10;;;;;;;;;;4990972;28;20453;-89
2023/11/16 02:54:58;;;;;;;2.85;0.73;;;;;;;;;;4909895;29;20127;-89
2023/11/16 02:57:57;;;;;;;1.40;0.40;;;;;;;;;;4910947;29;20171;-89
2023/11/16 03:16:42;;;;;;;;;;;;;;;;;;;;;
2023/11/16 03:19:52;;;;;;;0.98;0.73;;;;;;;;;;4930462;29;20060;-89
2023/11/16 03:50:30;;;;;;;0.47;0.38;;;;;;;;;;5008700;28;20085;-87
2023/11/16 03:53:11;;;;;;;;;;;;;;;;;;;;;
2023/11/16 03:59:03;;;;;;;2.10;0.63;;;;;;;;;;4982674;28;20169;-87
2023/11/16 04:02:08;;;;;;;0.20;0.20;;;;;;;;;;4915761;29;20043;-87
2023/11/16 04:08:05;;;;;;;;;;;;;;;;;;;;;
2023/11/16 04:11:04;;;;;;;0.75;0.50;;;;;;;;;;5015139;28;20044;-87
2023/11/16 04:51:09;;;;;;;;;;;;;;;;;;;;;
2023/11/16 06:15:30;;;;;;;;;;;;;;;;;;;;;
2023/11/16 06:28:24;;;;;;;1.65;0.30;;;;;;;;;;5029353;28;20049;-91
2023/11/16 06:30:53;;;;;;;0.20;0.20;;;;;;;;;;4971771;28;20522;-93
2023/11/16 06:33:19;;;;;;;1.95;0.77;;;;;;;;;;4969636;28;20493;-88
2023/11/16 06:35:45;;;;;;;0.57;0.50;;;;;;;;;;4946264;28;20568;-88
2023/11/16 06:38:13;;;;;;;1.45;0.85;;;;;;;;;;4952944;28;20038;-89
2023/11/16 06:40:39;;;;;;;1.25;0.68;;;;;;;;;;4952518;28;20742;-88
2023/11/16 06:43:23;;;;;;;0.50;0.35;;;;;;;;;;4963523;28;20070;-89
2023/11/16 06:45:49;;;;;;;3.45;0.80;;;;;;;;;;4964980;28;20856;-87
2023/11/16 06:48:15;;;;;;;0.40;0.30;;;;;;;;;;4955294;28;20047;-87
2023/11/16 06:50:41;;;;;;;0.52;0.43;;;;;;;;;;4953639;28;20038;-87
2023/11/16 06:53:09;;;;;;;1.58;0.63;;;;;;;;;;4953051;28;20491;-87
2023/11/16 06:55:35;;;;;;;2.05;0.28;;;;;;;;;;4954407;28;20042;-87
2023/11/16 06:58:04;;;;;;;1.23;0.93;;;;;;;;;;4955794;28;20557;-87
2023/11/16 07:00:30;;;;;;;2.38;1.00;;;;;;;;;;4945503;28;20130;-87
2023/11/16 07:02:57;;;;;;;0.85;0.30;;;;;;;;;;5000882;28;20046;-87
2023/11/16 07:05:23;;;;;;;1.63;0.77;;;;;;;;;;5013145;28;20041;-87
2023/11/16 07:07:50;;;;;;;2.15;0.55;;;;;;;;;;5022883;28;20436;-87
2023/11/16 07:10:16;;;;;;;4.80;0.65;;;;;;;;;;5011155;28;20060;-88
2023/11/16 07:12:42;;;;;;;1.48;0.85;;;;;;;;;;5003174;28;20477;-86
2023/11/16 07:15:14;;;;;;;5.18;0.80;;;;;;;;;;5014084;28;20037;-88
2023/11/16 07:17:41;;;;;;;2.97;0.90;;;;;;;;;;5010886;28;20042;-87
2023/11/16 07:20:11;;;;;;;3.72;0.73;;;;;;;;;;5009600;28;20061;-87
2023/11/16 07:22:38;;;;;;;0.95;0.45;;;;;;;;;;5012364;28;20136;-88
2023/11/16 07:25:07;;;;;;;0.77;0.47;;;;;;;;;;5013471;28;20071;-87
2023/11/16 07:27:33;;;;;;;3.10;1.00;;;;;;;;;;5010653;28;20057;-87
2023/11/16 07:29:59;;;;;;;10.25;1.73;;;;;;;;;;5003412;28;20050;-88
2023/11/16 07:32:25;;;;;;;6.57;1.80;;;;;;;;;;5008223;28;20042;-88
2023/11/16 07:34:51;;;;;;;8.80;1.77;;;;;;;;;;5017133;28;20039;-88
2023/11/16 07:37:17;;;;;;;1.50;0.82;;;;;;;;;;5013027;28;20042;-87
2023/11/16 07:39:44;;;;;;;2.83;1.58;;;;;;;;;;5014059;28;20034;-88
2023/11/16 07:42:12;;;;;;;5.05;0.90;;;;;;;;;;5012195;28;20029;-88
2023/11/16 07:44:38;;;;;;;5.13;0.98;;;;;;;;;;5017698;28;20382;-87
2023/11/16 07:47:08;;;;;;;3.50;0.77;;;;;;;;;;5010950;28;20041;-87
2023/11/16 07:49:35;;;;;;;3.75;1.40;;;;;;;;;;4998430;28;20154;-87
2023/11/16 07:52:01;;;;;;;2.13;1.13;;;;;;;;;;5012094;28;20381;-88
2023/11/16 07:54:27;;;;;;;6.47;1.20;;;;;;;;;;5030812;28;20979;-87
2023/11/16 07:56:59;;;;;;;5.80;1.30;;;;;;;;;;5010021;28;20435;-88
2023/11/16 07:59:31;;;;;;;1.90;0.98;;;;;;;;;;5004106;28;20104;-87
2023/11/16 08:02:00;;;;;;;0.95;0.52;;;;;;;;;;5024871;28;20041;-87
2023/11/16 08:04:26;;;;;;;5.80;0.98;;;;;;;;;;5001440;28;20037;-87
2023/11/16 08:06:56;;;;;;;4.10;1.15;;;;;;;;;;5015532;28;20393;-87
2023/11/16 08:09:24;;;;;;;3.60;1.33;;;;;;;;;;5010598;28;20485;-88
2023/11/16 08:11:53;;;;;;;3.17;0.60;;;;;;;;;;5027057;28;20037;-87
2023/11/16 08:14:22;;;;;;;1.33;0.75;;;;;;;;;;5006351;28;20224;-88
2023/11/16 08:16:49;;;;;;;1.40;0.90;;;;;;;;;;5020470;28;20033;-88
2023/11/16 08:19:15;;;;;;;1.55;0.47;;;;;;;;;;5013864;28;20129;-88
2023/11/16 08:21:41;;;;;;;2.00;0.70;;;;;;;;;;5015611;28;20116;-87
2023/11/16 08:24:10;;;;;;;5.68;1.73;;;;;;;;;;5016022;28;20603;-87
2023/11/16 08:26:37;;;;;;;3.03;1.35;;;;;;;;;;5009602;28;20041;-87
2023/11/16 08:29:03;;;;;;;1.63;0.75;;;;;;;;;;5013230;28;20362;-88
2023/11/16 08:31:29;;;;;;;2.63;0.80;;;;;;;;;;5001036;28;20033;-89
2023/11/16 08:33:56;;;;;;;1.70;0.90;;;;;;;;;;5004873;28;20049;-89
2023/11/16 08:36:25;;;;;;;2.05;1.25;;;;;;;;;;5033620;28;20034;-88
2023/11/16 08:38:51;;;;;;;4.05;1.38;;;;;;;;;;5011439;28;20120;-88
2023/11/16 08:41:17;;;;;;;2.83;0.60;;;;;;;;;;4997317;28;20124;-88
2023/11/16 08:43:50;;;;;;;2.75;1.25;;;;;;;;;;5025761;28;20045;-88
2023/11/16 08:46:24;;;;;;;1.38;0.57;;;;;;;;;;5007717;28;20037;-87
2023/11/16 08:48:53;;;;;;;2.15;0.43;;;;;;;;;;5012335;28;20049;-88
2023/11/16 08:51:22;;;;;;;3.45;0.63;;;;;;;;;;5014028;28;20081;-88
2023/11/16 08:53:51;;;;;;;4.90;1.80;;;;;;;;;;5016025;28;20064;-89
2023/11/16 08:56:17;;;;;;;1.73;0.80;;;;;;;;;;5015262;28;20091;-88
2023/11/16 08:58:47;;;;;;;4.65;0.50;;;;;;;;;;5012939;28;20045;-88
2023/11/16 09:01:16;;;;;;;0.80;0.65;;;;;;;;;;5014450;28;20044;-90
2023/11/16 09:03:45;;;;;;;21.63;1.08;;;;;;;;;;5015265;28;20041;-89
2023/11/16 09:06:16;;;;;;;1.48;0.52;;;;;;;;;;5012807;28;20166;-88
2023/11/16 09:08:51;;;;;;;2.47;0.65;;;;;;;;;;5012928;28;20048;-87
2023/11/16 09:11:22;;;;;;;2.47;1.08;;;;;;;;;;5016202;28;20043;-87
2023/11/16 09:13:48;;;;;;;0.03;0.03;;;;;;;;;;5013109;28;20071;-87
2023/11/16 09:16:14;;;;;;;1.10;0.47;;;;;;;;;;5009166;28;20151;-88
2023/11/16 09:18:45;;;;;;;0.30;0.30;;;;;;;;;;5031456;28;20037;-87
2023/11/16 09:21:14;;;;;;;0.88;0.77;;;;;;;;;;5016379;28;20164;-87
2023/11/16 09:23:41;;;;;;;4.65;1.08;;;;;;;;;;5014700;28;20128;-88
2023/11/16 09:26:11;;;;;;;2.08;1.13;;;;;;;;;;5014629;28;20151;-88
2023/11/16 09:28:38;;;;;;;1.50;0.82;;;;;;;;;;5006091;28;20089;-89
2023/11/16 09:31:12;;;;;;;2.22;0.77;;;;;;;;;;5010145;28;20049;-89
2023/11/16 09:33:41;;;;;;;1.25;0.88;;;;;;;;;;5011129;28;20647;-87
2023/11/16 09:36:09;;;;;;;6.68;0.80;;;;;;;;;;5016577;28;20045;-88
2023/11/16 09:38:36;;;;;;;0.80;0.55;;;;;;;;;;5019324;28;20072;-90
2023/11/16 09:41:07;;;;;;;14.45;2.08;;;;;;;;;;5015691;28;20408;-89
2023/11/16 09:43:37;;;;;;;0.73;0.20;;;;;;;;;;5005166;28;20042;-89
2023/11/16 09:46:06;;;;;;;0.60;0.38;;;;;;;;;;5001077;28;20042;-88
2023/11/16 09:48:32;;;;;;;1.00;0.75;;;;;;;;;;5013562;28;20052;-89
2023/11/16 09:50:59;;;;;;;1.23;0.68;;;;;;;;;;5004462;28;20046;-88
2023/11/16 09:53:27;;;;;;;1.75;0.55;;;;;;;;;;5013003;28;20056;-89
2023/11/16 09:55:58;;;;;;;4.40;1.15;;;;;;;;;;5011134;28;20073;-88
2023/11/16 09:58:25;;;;;;;1.95;1.10;;;;;;;;;;5006832;28;20042;-88
2023/11/16 10:00:56;;;;;;;2.58;0.57;;;;;;;;;;5014746;28;20124;-88
2023/11/16 10:03:25;;;;;;;1.42;0.65;;;;;;;;;;5017781;28;20037;-89
2023/11/16 10:05:55;;;;;;;1.88;0.90;;;;;;;;;;5012664;28;20085;-88
2023/11/16 10:08:21;;;;;;;1.95;0.75;;;;;;;;;;5012571;28;20041;-88
2023/11/16 10:10:54;;;;;;;1.17;0.52;;;;;;;;;;5011527;28;20437;-88
2023/11/16 10:13:21;;;;;;;1.45;0.77;;;;;;;;;;5013473;28;20041;-88
2023/11/16 10:15:49;;;;;;;1.85;0.32;;;;;;;;;;5000203;28;20129;-89
2023/11/16 10:18:17;;;;;;;3.67;1.25;;;;;;;;;;5006078;28;20048;-89
2023/11/16 10:20:43;;;;;;;2.50;0.88;;;;;;;;;;5013854;28;20481;-87
2023/11/16 10:23:11;;;;;;;0.55;0.30;;;;;;;;;;5013071;28;20048;-89
2023/11/16 10:25:38;;;;;;;0.70;0.47;;;;;;;;;;5014899;28;20048;-88
2023/11/16 10:28:17;;;;;;;1.45;0.38;;;;;;;;;;5013582;28;20050;-89
2023/11/16 10:30:57;;;;;;;2.22;0.40;;;;;;;;;;5012009;28;20121;-88
2023/11/16 10:33:24;;;;;;;4.15;1.13;;;;;;;;;;5005363;28;20470;-89
2023/11/16 10:36:00;;;;;;;0.28;0.10;;;;;;;;;;5011980;28;20405;-87
2023/11/16 10:38:29;;;;;;;1.70;0.60;;;;;;;;;;5011217;28;20048;-88
2023/11/16 10:40:57;;;;;;;0.50;0.20;;;;;;;;;;5005400;28;20042;-87
2023/11/16 10:43:25;;;;;;;1.45;0.57;;;;;;;;;;5013489;28;20535;-87
2023/11/16 10:45:52;;;;;;;0.70;0.45;;;;;;;;;;5013325;28;20105;-88
2023/11/16 10:48:19;;;;;;;11.13;1.23;;;;;;;;;;5029787;28;20045;-88
2023/11/16 10:50:46;;;;;;;3.33;1.20;;;;;;;;;;5007070;28;20551;-87
2023/11/16 10:53:17;;;;;;;0.75;0.52;;;;;;;;;;5007434;28;20046;-88
2023/11/16 10:55:46;;;;;;;0.32;0.20;;;;;;;;;;5008971;28;20470;-87
2023/11/16 10:58:12;;;;;;;2.75;0.88;;;;;;;;;;5024316;28;20424;-87
2023/11/16 11:00:42;;;;;;;2.83;0.88;;;;;;;;;;5018330;28;20835;-88
2023/11/16 11:03:10;;;;;;;2.17;0.73;;;;;;;;;;5005534;28;20045;-88
2023/11/16 11:05:40;;;;;;;0.85;0.65;;;;;;;;;;5010995;28;20121;-88
2023/11/16 11:08:08;;;;;;;3.42;1.15;;;;;;;;;;5000107;28;20033;-88
2023/11/16 11:10:36;;;;;;;3.83;0.90;;;;;;;;;;5013165;28;20037;-89
2023/11/16 11:13:11;;;;;;;0.95;0.10;;;;;;;;;;5012716;28;20469;-89
2023/11/16 11:15:40;;;;;;;0.88;0.65;;;;;;;;;;5003036;28;20038;-88
2023/11/16 11:18:06;;;;;;;1.02;0.22;;;;;;;;;;5007941;28;20050;-89
2023/11/16 11:20:40;;;;;;;1.92;1.13;;;;;;;;;;5013354;28;20116;-88
2023/11/16 11:23:09;;;;;;;0.95;0.43;;;;;;;;;;5008423;28;20077;-88
2023/11/16 11:25:36;;;;;;;0.50;0.30;;;;;;;;;;4993810;28;20037;-88
2023/11/16 11:28:03;;;;;;;1.55;0.82;;;;;;;;;;5010141;28;20058;-88
2023/11/16 11:30:30;;;;;;;4.90;1.38;;;;;;;;;;5018419;28;20038;-88
2023/11/16 11:32:57;;;;;;;1.35;0.50;;;;;;;;;;5014025;28;20447;-88
2023/11/16 11:35:25;;;;;;;3.10;0.98;;;;;;;;;;5019798;28;20037;-88
2023/11/16 11:37:52;;;;;;;1.85;0.90;;;;;;;;;;5011573;28;20050;-88
2023/11/16 11:40:27;;;;;;;0.32;0.30;;;;;;;;;;5017208;28;20821;-88
2023/11/16 11:42:53;;;;;;;3.75;1.02;;;;;;;;;;5009206;28;20042;-87
2023/11/16 11:45:20;;;;;;;2.30;0.50;;;;;;;;;;5016074;28;20041;-88
2023/11/16 11:47:54;;;;;;;4.45;1.58;;;;;;;;;;5009076;28;20069;-87
2023/11/16 11:50:21;;;;;;;3.30;0.73;;;;;;;;;;5013276;28;20037;-86
2023/11/16 11:52:49;;;;;;;1.58;0.50;;;;;;;;;;5019821;28;20076;-87
2023/11/16 11:55:17;;;;;;;8.70;0.98;;;;;;;;;;4999830;28;20037;-88
2023/11/16 11:57:43;;;;;;;5.45;0.68;;;;;;;;;;5011741;28;20057;-89
2023/11/16 12:00:11;;;;;;;3.97;1.13;;;;;;;;;;5013341;28;20076;-88
2023/11/16 12:02:37;;;;;;;2.42;1.20;;;;;;;;;;5015836;28;20054;-89
2023/11/16 12:05:15;;;;;;;1.58;0.65;;;;;;;;;;5016175;28;20395;-87
2023/11/16 12:07:42;;;;;;;4.68;1.80;;;;;;;;;;5003416;28;20053;-88
2023/11/16 12:10:08;;;;;;;1.95;1.48;;;;;;;;;;5011407;28;20034;-88
2023/11/16 12:12:36;;;;;;;2.22;1.30;;;;;;;;;;5004309;28;20045;-87
2023/11/16 12:15:03;;;;;;;5.30;0.90;;;;;;;;;;5003569;28;20042;-88
2023/11/16 12:17:29;;;;;;;3.22;0.60;;;;;;;;;;5007565;28;20050;-88
2023/11/16 12:19:58;;;;;;;2.42;1.10;;;;;;;;;;5016319;28;20034;-88
2023/11/16 12:22:28;;;;;;;0.70;0.60;;;;;;;;;;5014573;28;20041;-86
2023/11/16 12:24:54;;;;;;;4.68;1.30;;;;;;;;;;5006834;28;20593;-87
2023/11/16 12:27:21;;;;;;;0.47;0.30;;;;;;;;;;5010686;28;20059;-88
2023/11/16 12:29:58;;;;;;;1.15;0.65;;;;;;;;;;5013547;28;20033;-88
2023/11/16 12:32:24;;;;;;;3.03;1.15;;;;;;;;;;5016735;28;20044;-89
2023/11/16 12:34:52;;;;;;;4.15;0.88;;;;;;;;;;5008942;28;20041;-88
2023/11/16 12:37:18;;;;;;;4.13;1.27;;;;;;;;;;5010877;28;20046;-87
2023/11/16 12:39:44;;;;;;;2.15;0.75;;;;;;;;;;5015210;28;20042;-88
2023/11/16 12:42:11;;;;;;;1.98;0.75;;;;;;;;;;5015147;28;20132;-88
2023/11/16 12:44:37;;;;;;;0.98;0.70;;;;;;;;;;5011782;28;20125;-87
2023/11/16 12:47:03;;;;;;;3.15;0.73;;;;;;;;;;5009569;28;20037;-88
2023/11/16 12:49:29;;;;;;;7.38;0.50;;;;;;;;;;5009464;28;20540;-88
2023/11/16 12:51:56;;;;;;;0.98;0.50;;;;;;;;;;5012789;28;21470;-86
2023/11/16 12:54:22;;;;;;;2.55;1.08;;;;;;;;;;5032933;28;20059;-87
2023/11/16 12:56:50;;;;;;;0.20;0.20;;;;;;;;;;5002905;28;20136;-87
2023/11/16 12:59:16;;;;;;;8.15;1.38;;;;;;;;;;5004047;28;20033;-87
2023/11/16 13:01:42;;;;;;;1.88;0.57;;;;;;;;;;5007920;28;20038;-88
2023/11/16 13:04:11;;;;;;;2.30;1.15;;;;;;;;;;5015402;28;20083;-88
2023/11/16 13:06:37;;;;;;;0.60;0.60;;;;;;;;;;5006103;28;20049;-87
2023/11/16 13:09:04;;;;;;;2.75;1.35;;;;;;;;;;5013812;28;20397;-88
2023/11/16 13:11:30;;;;;;;4.38;1.23;;;;;;;;;;5012081;28;20045;-88
2023/11/16 13:13:56;;;;;;;0.40;0.25;;;;;;;;;;5002615;28;20401;-86
2023/11/16 13:16:23;;;;;;;0.00;0.00;;;;;;;;;;5019329;28;20478;-89
2023/11/16 13:18:52;;;;;;;0.70;0.43;;;;;;;;;;5012254;28;20041;-85
2023/11/16 13:21:19;;;;;;;0.20;0.10;;;;;;;;;;5014960;28;20038;-87
2023/11/16 13:23:49;;;;;;;2.55;0.47;;;;;;;;;;5013498;28;20077;-88
2023/11/16 13:26:15;;;;;;;3.65;1.13;;;;;;;;;;5011850;28;20124;-87
2023/11/16 13:28:41;;;;;;;1.58;0.80;;;;;;;;;;5005907;28;20057;-89
2023/11/16 13:31:07;;;;;;;2.13;1.08;;;;;;;;;;5015147;28;20066;-88
2023/11/16 13:33:33;;;;;;;0.82;0.32;;;;;;;;;;5013304;28;20042;-87
2023/11/16 13:35:59;;;;;;;1.20;0.38;;;;;;;;;;5011994;28;20045;-88
2023/11/16 13:38:28;;;;;;;2.03;1.00;;;;;;;;;;5007640;28;20137;-87
2023/11/16 13:40:54;;;;;;;5.43;0.80;;;;;;;;;;5005168;28;20030;-87
2023/11/16 13:43:20;;;;;;;1.30;0.60;;;;;;;;;;5013428;28;20041;-89
2023/11/16 13:45:46;;;;;;;2.67;0.80;;;;;;;;;;5009945;28;20041;-87
2023/11/16 13:48:12;;;;;;;0.82;0.20;;;;;;;;;;5008483;28;20125;-87
2023/11/16 13:50:39;;;;;;;3.70;0.55;;;;;;;;;;5006701;28;20045;-88
2023/11/16 13:53:05;;;;;;;1.98;0.63;;;;;;;;;;5003488;28;20121;-87
2023/11/16 13:55:31;;;;;;;0.40;0.30;;;;;;;;;;5005511;28;20087;-88
2023/11/16 13:57:57;;;;;;;1.30;0.47;;;;;;;;;;5006800;28;20077;-87
2023/11/16 14:00:27;;;;;;;4.47;1.55;;;;;;;;;;5012292;28;20080;-87
2023/11/16 14:02:53;;;;;;;0.90;0.43;;;;;;;;;;5011192;28;20038;-88
2023/11/16 14:05:20;;;;;;;1.75;0.75;;;;;;;;;;5011860;28;20145;-87
2023/11/16 14:07:46;;;;;;;3.03;0.55;;;;;;;;;;5007510;28;20041;-88
2023/11/16 14:10:13;;;;;;;1.95;0.35;;;;;;;;;;5007055;28;20053;-87
2023/11/16 14:12:39;;;;;;;0.30;0.25;;;;;;;;;;5003671;28;20487;-87
2023/11/16 14:15:13;;;;;;;0.65;0.55;;;;;;;;;;5023719;28;20042;-87
2023/11/16 14:17:39;;;;;;;1.75;0.52;;;;;;;;;;5009994;28;20384;-89
2023/11/16 14:20:10;;;;;;;0.68;0.40;;;;;;;;;;5003291;28;20081;-87
2023/11/16 14:22:36;;;;;;;0.30;0.20;;;;;;;;;;5011922;28;20060;-87
2023/11/16 14:25:03;;;;;;;0.63;0.13;;;;;;;;;;4999412;28;20051;-86
2023/11/16 14:27:29;;;;;;;0.35;0.25;;;;;;;;;;5010079;28;20061;-89
2023/11/16 14:29:55;;;;;;;1.10;0.30;;;;;;;;;;5012754;28;20045;-87
2023/11/16 14:32:28;;;;;;;0.32;0.30;;;;;;;;;;5010832;28;20036;-86
2023/11/16 14:35:03;;;;;;;0.43;0.25;;;;;;;;;;5015231;28;20043;-88
2023/11/16 14:37:32;;;;;;;0.90;0.10;;;;;;;;;;5012669;28;20078;-86
2023/11/16 14:39:58;;;;;;;0.65;0.00;;;;;;;;;;5012174;28;20485;-86
2023/11/16 14:42:26;;;;;;;1.45;0.10;;;;;;;;;;4999806;28;20377;-87
2023/11/16 14:44:54;;;;;;;0.00;0.00;;;;;;;;;;5012613;28;20072;-85
2023/11/16 14:47:21;;;;;;;0.13;0.03;;;;;;;;;;5009191;28;20128;-86
2023/11/16 14:49:51;;;;;;;0.10;0.00;;;;;;;;;;5001649;28;20115;-86
2023/11/16 14:52:19;;;;;;;0.93;0.43;;;;;;;;;;5010943;28;20073;-87
2023/11/16 14:54:47;;;;;;;0.90;0.45;;;;;;;;;;5008261;28;20054;-87
2023/11/16 14:57:13;;;;;;;1.15;0.40;;;;;;;;;;5008974;28;20689;-87
2023/11/16 14:59:42;;;;;;;1.45;0.60;;;;;;;;;;5010060;28;20112;-87
2023/11/16 15:02:11;;;;;;;4.88;1.38;;;;;;;;;;5009323;28;20053;-86
2023/11/16 15:04:37;;;;;;;1.23;0.60;;;;;;;;;;5028647;28;20045;-87
2023/11/16 15:07:03;;;;;;;2.13;0.60;;;;;;;;;;5031093;28;20404;-87
2023/11/16 15:09:31;;;;;;;1.25;0.70;;;;;;;;;;5012896;28;20042;-88
2023/11/16 15:11:57;;;;;;;2.50;1.25;;;;;;;;;;5010604;28;20038;-89
2023/11/16 15:14:23;;;;;;;4.38;0.65;;;;;;;;;;5013125;28;20395;-88
2023/11/16 15:16:49;;;;;;;0.68;0.40;;;;;;;;;;4999846;28;20484;-87
2023/11/16 15:19:15;;;;;;;1.90;0.70;;;;;;;;;;5009872;28;20040;-87
2023/11/16 15:21:42;;;;;;;1.58;0.50;;;;;;;;;;4998460;28;20033;-87
2023/11/16 15:24:12;;;;;;;1.08;0.30;;;;;;;;;;5008732;28;20056;-87
2023/11/16 15:26:38;;;;;;;0.60;0.32;;;;;;;;;;4995875;28;20132;-87
2023/11/16 15:29:08;;;;;;;1.05;0.70;;;;;;;;;;5010206;28;20137;-89
2023/11/16 15:31:35;;;;;;;0.38;0.30;;;;;;;;;;5005383;28;20072;-88
2023/11/16 15:34:02;;;;;;;5.45;1.30;;;;;;;;;;5034571;28;20033;-88
2023/11/16 15:36:31;;;;;;;0.47;0.30;;;;;;;;;;5006460;28;20141;-89
2023/11/16 15:39:01;;;;;;;0.68;0.50;;;;;;;;;;5000474;28;20034;-87
2023/11/16 15:41:27;;;;;;;1.70;0.50;;;;;;;;;;5008590;28;20078;-90
2023/11/16 15:43:53;;;;;;;1.02;0.70;;;;;;;;;;5011142;28;20026;-88
2023/11/16 15:46:19;;;;;;;1.23;0.75;;;;;;;;;;5004319;28;20054;-87
2023/11/16 15:48:48;;;;;;;0.90;0.15;;;;;;;;;;5011836;28;20068;-87
2023/11/16 15:51:14;;;;;;;0.90;0.63;;;;;;;;;;5000488;28;20049;-87
2023/11/16 15:53:43;;;;;;;0.98;0.40;;;;;;;;;;5007058;28;20156;-88
2023/11/16 15:56:10;;;;;;;0.65;0.20;;;;;;;;;;5005870;28;20057;-87
2023/11/16 15:58:42;;;;;;;3.15;1.42;;;;;;;;;;5010627;28;20066;-87
2023/11/16 16:01:08;;;;;;;2.47;1.00;;;;;;;;;;5012122;28;20442;-87
2023/11/16 16:03:34;;;;;;;3.90;0.60;;;;;;;;;;5010738;28;20046;-88
2023/11/16 16:06:01;;;;;;;2.03;0.52;;;;;;;;;;5006396;28;20053;-87
2023/11/16 16:08:29;;;;;;;2.65;0.60;;;;;;;;;;5009765;28;20128;-87
2023/11/16 16:10:56;;;;;;;0.30;0.13;;;;;;;;;;5008966;28;20045;-88
2023/11/16 16:13:25;;;;;;;0.10;0.00;;;;;;;;;;5006651;28;20041;-88
2023/11/16 16:15:51;;;;;;;2.53;0.40;;;;;;;;;;5009655;28;20495;-87
2023/11/16 16:18:18;;;;;;;2.72;1.13;;;;;;;;;;5006480;28;20030;-87
2023/11/16 16:20:55;;;;;;;3.72;1.40;;;;;;;;;;5004218;28;20053;-87
2023/11/16 16:23:21;;;;;;;1.25;0.68;;;;;;;;;;5014694;28;20381;-87
2023/11/16 16:25:47;;;;;;;4.15;0.73;;;;;;;;;;5013823;28;20205;-86
2023/11/16 16:28:13;;;;;;;1.25;0.68;;;;;;;;;;5008897;28;20038;-85
2023/11/16 16:30:40;;;;;;;5.65;2.80;;;;;;;;;;5008128;28;20048;-85
2023/11/16 16:33:07;;;;;;;7.60;2.88;;;;;;;;;;5001946;28;20038;-87
2023/11/16 16:35:39;;;;;;;6.70;3.30;;;;;;;;;;5023562;28;20030;-87
2023/11/16 16:38:09;;;;;;;1.95;1.00;;;;;;;;;;5016126;28;20064;-87
2023/11/16 16:40:35;;;;;;;0.75;0.52;;;;;;;;;;5029144;23;20050;-89
2023/11/16 16:43:03;;;;;;;0.20;0.20;;;;;;;;;;5026450;28;20049;-89
2023/11/16 16:46:10;;;;;;;0.50;0.20;;;;;;;;;;5030940;28;20152;-88
2023/11/16 16:52:04;;;;;;;0.32;0.20;;;;;;;;;;5026561;28;20131;-87
2023/11/16 16:54:54;;;;;;;0.00;0.00;;;;;;;;;;5030935;28;20049;-89
2023/11/16 17:03:15;;;;;;;1.38;0.45;;;;;;;;;;5017560;28;20041;-87
2023/11/16 17:09:00;;;;;;;0.00;0.00;;;;;;;;;;4995531;28;20034;-85
2023/11/16 17:17:10;;;;;;;0.03;0.00;;;;;;;;;;5097344;23;20069;-89
2023/11/16 17:19:42;;;;;;;0.28;0.10;;;;;;;;;;5024874;28;20046;-90
2023/11/16 17:22:12;;;;;;;1.17;0.55;;;;;;;;;;5024346;28;20037;-89
2023/11/16 17:24:38;;;;;;;0.98;0.55;;;;;;;;;;5030632;28;20080;-89
2023/11/16 17:27:04;;;;;;;0.38;0.10;;;;;;;;;;5020049;28;20041;-90
2023/11/16 17:29:30;;;;;;;0.32;0.17;;;;;;;;;;5031681;28;20076;-91
2023/11/16 17:32:12;;;;;;;;;;;;;;;;;;;;;
2023/11/16 17:34:38;;;;;;;0.52;0.30;;;;;;;;;;5018280;28;20056;-89
2023/11/16 17:37:04;;;;;;;0.35;0.17;;;;;;;;;;5023378;28;20045;-89
2023/11/16 17:39:31;;;;;;;0.30;0.17;;;;;;;;;;5029566;28;20064;-87
2023/11/16 17:41:57;;;;;;;0.63;0.20;;;;;;;;;;5029216;28;20079;-86
2023/11/16 17:44:24;;;;;;;0.08;0.00;;;;;;;;;;5045193;28;20064;-86
2023/11/16 17:46:50;;;;;;;1.95;0.10;;;;;;;;;;5033208;28;20037;-86
2023/11/16 17:49:16;;;;;;;0.08;0.03;;;;;;;;;;5023676;28;20046;-88
2023/11/16 17:51:44;;;;;;;1.42;0.38;;;;;;;;;;5014978;28;20049;-87
2023/11/16 17:54:10;;;;;;;2.90;0.80;;;;;;;;;;5053604;28;20052;-89
2023/11/16 17:56:36;;;;;;;0.32;0.20;;;;;;;;;;5017328;28;20042;-89
2023/11/16 17:59:02;;;;;;;6.22;0.40;;;;;;;;;;5012660;28;20045;-90
2023/11/16 18:01:28;;;;;;;1.00;0.40;;;;;;;;;;5039255;28;20436;-90
2023/11/16 18:03:54;;;;;;;1.48;0.55;;;;;;;;;;5019558;28;20038;-88
2023/11/16 18:06:21;;;;;;;1.45;0.35;;;;;;;;;;5025002;28;20124;-87
2023/11/16 18:08:47;;;;;;;1.63;0.68;;;;;;;;;;5022201;28;20485;-86
2023/11/16 18:11:13;;;;;;;1.73;0.47;;;;;;;;;;5018254;28;20041;-87
2023/11/16 18:13:40;;;;;;;0.60;0.30;;;;;;;;;;5038106;28;20076;-85
2023/11/16 18:16:09;;;;;;;0.08;0.08;;;;;;;;;;5031845;28;20061;-89
2023/11/16 18:18:37;;;;;;;0.10;0.10;;;;;;;;;;5018996;28;20046;-86
2023/11/16 18:21:06;;;;;;;1.20;0.38;;;;;;;;;;5011953;28;20107;-87
2023/11/16 18:23:32;;;;;;;2.60;0.32;;;;;;;;;;5028896;28;20057;-88
2023/11/16 18:26:00;;;;;;;2.47;0.77;;;;;;;;;;5011835;28;20034;-88
2023/11/16 18:28:31;;;;;;;0.70;0.32;;;;;;;;;;5014612;28;20058;-91
2023/11/16 18:31:23;;;;;;;2.95;1.10;;;;;;;;;;5030304;28;20042;-91
2023/11/16 18:34:19;;;;;;;0.43;0.25;;;;;;;;;;5024145;28;20052;-90
2023/11/16 18:37:28;;;;;;;0.77;0.40;;;;;;;;;;5013208;28;20046;-91
2023/11/16 18:39:55;;;;;;;1.63;0.40;;;;;;;;;;4954241;28;20093;-90
2023/11/16 18:42:41;;;;;;;1.88;0.60;;;;;;;;;;4969875;28;20165;-90
2023/11/16 18:45:08;;;;;;;1.23;0.43;;;;;;;;;;5018325;28;20038;-89
2023/11/16 18:47:52;;;;;;;0.43;0.20;;;;;;;;;;5015393;28;20084;-90
2023/11/16 18:53:51;;;;;;;;;;;;;;;;;;;;;
2023/11/16 19:02:40;;;;;;;5.95;0.65;;;;;;;;;;5057322;28;20052;-93
2023/11/16 19:05:19;;;;;;;4.00;0.57;;;;;;;;;;4999588;28;20088;-94
2023/11/16 19:22:03;;;;;;;0.43;0.15;;;;;;;;;;3259318;22;20533;-85
2023/11/16 19:24:38;;;;;;;3.15;0.88;;;;;;;;;;5023531;28;20512;-86
2023/11/16 19:37:29;;;;;;;1.85;0.93;;;;;;;;;;4975454;28;20445;-89
2023/11/16 20:11:04;;;;;;;2.45;1.10;;;;;;;;;;1197943;22;22277;-89
2023/11/16 20:13:39;;;;;;;1.83;0.43;;;;;;;;;;4992487;28;20104;-93
2023/11/16 20:16:08;;;;;;;0.20;0.20;;;;;;;;;;5010747;28;20042;-90
2023/11/16 20:18:51;;;;;;;1.92;0.13;;;;;;;;;;4997809;28;20033;-91
2023/11/16 20:21:21;;;;;;;2.30;0.30;;;;;;;;;;5006616;28;20094;-91
2023/11/16 20:23:52;;;;;;;1.00;0.47;;;;;;;;;;4992910;28;20035;-91
2023/11/16 20:26:23;;;;;;;1.35;0.20;;;;;;;;;;5011932;28;20081;-90
2023/11/16 20:28:58;;;;;;;0.20;0.05;;;;;;;;;;5008461;28;20130;-92
2023/11/16 20:31:44;;;;;;;0.27;0.17;;;;;;;;;;4982892;28;20046;-93
2023/11/16 20:43:17;;;;;;;0.22;0.10;;;;;;;;;;4984388;28;20030;-93
2023/11/16 20:45:48;;;;;;;0.97;0.60;;;;;;;;;;4983502;28;20043;-92
2023/11/16 20:48:20;;;;;;;4.13;1.00;;;;;;;;;;4993886;28;20549;-92
2023/11/16 20:50:49;;;;;;;1.08;0.82;;;;;;;;;;4993422;28;20038;-93
2023/11/16 20:53:56;;;;;;;0.35;0.13;;;;;;;;;;4977045;28;20039;-93
2023/11/16 21:11:27;;;;;;;3.75;0.45;;;;;;;;;;4980933;28;19909;-92
2023/11/16 21:14:01;;;;;;;3.47;1.15;;;;;;;;;;4995637;28;20133;-93
2023/11/16 21:16:31;;;;;;;2.45;0.80;;;;;;;;;;4979234;28;20058;-92
2023/11/16 21:18:59;;;;;;;1.15;0.45;;;;;;;;;;4994627;28;20073;-92
2023/11/16 21:24:23;;;;;;;1.40;0.45;;;;;;;;;;4996789;28;20045;-93
2023/11/16 21:30:18;;;;;;;1.65;0.68;;;;;;;;;;4917635;29;20036;-93
2023/11/16 21:32:56;;;;;;;2.60;0.35;;;;;;;;;;4921396;28;20550;-92
2023/11/16 21:35:45;;;;;;;2.20;0.80;;;;;;;;;;4992123;28;20046;-92
2023/11/16 21:38:14;;;;;;;3.33;0.43;;;;;;;;;;4980958;28;20046;-93
2023/11/16 21:41:13;;;;;;;;;;;;;;;;;;;;;
2023/11/16 21:44:07;;;;;;;0.13;0.13;;;;;;;;;;4994327;28;20049;-92
2023/11/16 21:46:42;;;;;;;6.55;1.15;;;;;;;;;;5008651;28;20105;-92
2023/11/16 21:49:25;;;;;;;0.35;0.20;;;;;;;;;;4995647;28;20101;-94
2023/11/16 21:52:01;;;;;;;0.35;0.10;;;;;;;;;;4987885;28;20133;-93
2023/11/16 21:54:34;;;;;;;0.22;0.20;;;;;;;;;;4978602;28;20042;-93
2023/11/16 21:57:07;;;;;;;0.00;0.00;;;;;;;;;;4978395;28;20049;-93
2023/11/16 21:59:34;;;;;;;0.00;0.00;;;;;;;;;;4994915;28;20035;-92
2023/11/16 22:02:00;;;;;;;0.00;0.00;;;;;;;;;;4978253;28;20058;-92
2023/11/16 22:04:36;;;;;;;0.82;0.30;;;;;;;;;;4978201;28;20049;-93
2023/11/16 22:07:04;;;;;;;1.08;0.50;;;;;;;;;;4995332;28;20045;-93
2023/11/16 22:09:34;;;;;;;0.28;0.10;;;;;;;;;;4997873;28;20097;-93
2023/11/16 22:12:09;;;;;;;0.00;0.00;;;;;;;;;;4992336;28;20039;-92
2023/11/16 22:14:54;;;;;;;;;;;;;;;;;;;;;
2023/11/16 22:17:23;;;;;;;1.00;0.38;;;;;;;;;;4994102;28;20046;-93
2023/11/16 22:19:55;;;;;;;3.90;0.57;;;;;;;;;;4994588;28;20038;-93